| time (UTC) | temp F | wind direction | speed MPH | gust MPH | rain 1hr in | rain 24hr in | rain mn in | humidity % | barometer mb |
| 20260902212351 | 81 | 45 | 3.0 | 6.0 | 0.00 | 0.13 | 0.13 | 93 | 1003.1 |
| 20260902211352 | 81 | 38 | 2.0 | 4.0 | 0.05 | 0.13 | 0.13 | 93 | 1003.0 |
| 20260902210831 | 80 | 2 | 2.0 | 4.0 | 0.13 | 0.13 | 0.13 | 93 | 1003.2 |
| 20260902205352 | 80 | 44 | 4.0 | 7.0 | 0.13 | 0.13 | 0.13 | 93 | 1002.7 |
| 20260902204352 | 79 | 46 | 3.0 | 5.0 | 0.13 | 0.13 | 0.13 | 92 | 1001.1 |
| 20260902203353 | 79 | 46 | 4.0 | 8.0 | 0.13 | 0.13 | 0.13 | 92 | 1000.2 |
| 20260902202405 | 79 | 31 | 4.0 | 11.0 | 0.13 | 0.13 | 0.13 | 91 | 999.5 |
| 20260902201352 | 80 | 29 | 7.0 | 19.0 | 0.07 | 0.07 | 0.07 | 88 | 998.8 |
| 20260902200349 | 84 | 29 | 6.0 | 10.0 | 0.00 | 0.00 | 0.00 | 84 | 1003.3 |
| 20260902195349 | 84 | 37 | 6.0 | 13.0 | 0.00 | 0.00 | 0.00 | 84 | 1004.2 |
| 20260902194349 | 84 | 28 | 6.0 | 10.0 | 0.00 | 0.00 | 0.00 | 84 | 1004.2 |
| 20260902193349 | 84 | 25 | 6.0 | 11.0 | 0.00 | 0.00 | 0.00 | 85 | 1004.1 |
| 20260902192349 | 84 | 31 | 6.0 | 10.0 | 0.00 | 0.00 | 0.00 | 85 | 1004.9 |
| 20260902191349 | 85 | 29 | 6.0 | 10.0 | 0.00 | 0.00 | 0.00 | 83 | 1005.1 |
| 20260902190349 | 85 | 16 | 7.0 | 12.0 | 0.00 | 0.00 | 0.00 | 83 | 1005.8 |
| 20260902185353 | 85 | 41 | 6.0 | 11.0 | 0.00 | 0.00 | 0.00 | 83 | 1006.0 |
| 20260902184346 | 85 | 20 | 6.0 | 12.0 | 0.00 | 0.00 | 0.00 | 83 | 1005.9 |
| 20260902183346 | 85 | 42 | 6.0 | 14.0 | 0.00 | 0.00 | 0.00 | 82 | 1005.4 |
| 20260902182347 | 85 | 37 | 6.0 | 11.0 | 0.00 | 0.00 | 0.00 | 82 | 1006.1 |
| 20260902181831 | 86 | 28 | 6.0 | 10.0 | 0.00 | 0.00 | 0.00 | 81 | 1006.7 |
| 20260902180346 | 86 | 42 | 6.0 | 12.0 | 0.00 | 0.00 | 0.00 | 79 | 1007.4 |
| 20260902175346 | 87 | 4 | 6.0 | 11.0 | 0.00 | 0.00 | 0.00 | 78 | 1008.9 |
| 20260902174346 | 87 | 36 | 6.0 | 12.0 | 0.00 | 0.00 | 0.00 | 77 | 1011.4 |
| 20260902173344 | 87 | 42 | 6.0 | 11.0 | 0.00 | 0.00 | 0.00 | 78 | 1012.1 |
| 20260902172343 | 87 | 35 | 6.0 | 10.0 | 0.00 | 0.00 | 0.00 | 77 | 1012.0 |
| 20260902171836 | 87 | 334 | 6.0 | 11.0 | 0.00 | 0.00 | 0.00 | 77 | 1012.7 |
| 20260902170342 | 87 | 42 | 6.0 | 10.0 | 0.00 | 0.00 | 0.00 | 77 | 1011.2 |
| 20260902165343 | 87 | 29 | 5.0 | 9.0 | 0.00 | 0.00 | 0.00 | 78 | 1012.3 |
| 20260902164343 | 87 | 29 | 6.0 | 10.0 | 0.00 | 0.00 | 0.00 | 79 | 1013.0 |
| 20260902163827 | 87 | 43 | 6.0 | 13.0 | 0.00 | 0.00 | 0.00 | 79 | 1010.8 |
| 20260902162340 | 87 | 41 | 5.0 | 11.0 | 0.00 | 0.00 | 0.00 | 80 | 1011.8 |
| 20260902161340 | 87 | 18 | 6.0 | 11.0 | 0.00 | 0.00 | 0.00 | 80 | 1012.7 |
| 20260902160337 | 86 | 37 | 5.0 | 10.0 | 0.00 | 0.00 | 0.00 | 80 | 1011.4 |
| 20260902155337 | 86 | 48 | 6.0 | 10.0 | 0.00 | 0.00 | 0.00 | 81 | 1010.8 |
| 20260902154821 | 85 | 6 | 6.0 | 11.0 | 0.00 | 0.00 | 0.00 | 81 | 1009.0 |
| 20260902153337 | 85 | 39 | 6.0 | 12.0 | 0.00 | 0.00 | 0.00 | 81 | 1008.9 |
| 20260902152337 | 85 | 45 | 6.0 | 10.0 | 0.00 | 0.00 | 0.00 | 80 | 1008.1 |
| 20260902151337 | 86 | 26 | 5.0 | 9.0 | 0.00 | 0.00 | 0.00 | 79 | 1009.9 |
| 20260902150337 | 86 | 27 | 5.0 | 9.0 | 0.00 | 0.00 | 0.00 | 79 | 1008.2 |
| 20260902145335 | 86 | 19 | 5.0 | 9.0 | 0.00 | 0.00 | 0.00 | 77 | 1010.9 |
| 20260902144333 | 85 | 42 | 5.0 | 9.0 | 0.00 | 0.00 | 0.00 | 79 | 1008.5 |
| 20260902143332 | 85 | 37 | 6.0 | 11.0 | 0.00 | 0.00 | 0.00 | 80 | 1009.6 |
| 20260902142333 | 85 | 40 | 5.0 | 9.0 | 0.00 | 0.00 | 0.00 | 81 | 1009.4 |
| 20260902141332 | 85 | 38 | 5.0 | 10.0 | 0.00 | 0.00 | 0.00 | 81 | 1009.2 |
| 20260902140333 | 85 | 32 | 5.0 | 10.0 | 0.00 | 0.00 | 0.00 | 83 | 1008.6 |
| 20260902135332 | 84 | 36 | 5.0 | 9.0 | 0.00 | 0.00 | 0.00 | 84 | 1007.2 |
| 20260902134333 | 84 | 13 | 5.0 | 10.0 | 0.00 | 0.00 | 0.00 | 85 | 1006.6 |
| 20260902133330 | 84 | 34 | 5.0 | 9.0 | 0.00 | 0.00 | 0.00 | 86 | 1006.7 |
| 20260902132330 | 84 | 53 | 4.0 | 8.0 | 0.00 | 0.00 | 0.00 | 87 | 1007.5 |
| 20260902131815 | 84 | 24 | 5.0 | 9.0 | 0.00 | 0.00 | 0.00 | 88 | 1007.8 |
| 20260902130330 | 84 | 34 | 4.0 | 9.0 | 0.00 | 0.00 | 0.00 | 91 | 1008.0 |
| 20260902125330 | 83 | 15 | 5.0 | 9.0 | 0.00 | 0.00 | 0.00 | 93 | 1007.3 |
| 20260902124330 | 83 | 8 | 4.0 | 8.0 | 0.00 | 0.00 | 0.00 | 94 | 1007.3 |
| 20260902123330 | 82 | 24 | 4.0 | 9.0 | 0.00 | 0.00 | 0.00 | 96 | 1007.0 |
| 20260902122327 | 81 | 45 | 4.0 | 8.0 | 0.00 | 0.00 | 0.00 | 96 | 1006.3 |
| 20260902121325 | 81 | 50 | 4.0 | 8.0 | 0.00 | 0.00 | 0.00 | 97 | 1004.7 |
| 20260902115323 | 80 | 16 | 4.0 | 6.0 | 0.00 | 0.00 | 0.00 | 97 | 1003.7 |
| 20260902114324 | 80 | 45 | 3.0 | 5.0 | 0.00 | 0.00 | 0.00 | 97 | 1003.6 |
| 20260902113323 | 80 | 34 | 3.0 | 4.0 | 0.00 | 0.00 | 0.00 | 97 | 1003.0 |
| 20260902112323 | 80 | 37 | 2.0 | 4.0 | 0.00 | 0.00 | 0.00 | 97 | 1002.5 |
| 20260902111323 | 80 | 27 | 3.0 | 5.0 | 0.00 | 0.00 | 0.00 | 97 | 1002.2 |
| 20260902110323 | 80 | 48 | 3.0 | 5.0 | 0.00 | 0.00 | 0.00 | 97 | 1002.3 |
| 20260902105311 | 80 | 40 | 3.0 | 6.0 | 0.00 | 0.00 | 0.00 | 97 | 1002.3 |
| 20260902104309 | 80 | 49 | 3.0 | 6.0 | 0.00 | 0.00 | 0.00 | 97 | 1002.3 |
| 20260902103732 | 80 | 36 | 4.0 | 8.0 | 0.00 | 0.00 | 0.00 | 97 | 1002.0 |
| 20260902102253 | 80 | 41 | 4.0 | 8.0 | 0.00 | 0.00 | 0.00 | 97 | 1001.9 |
| 20260902101253 | 80 | 47 | 5.0 | 9.0 | 0.00 | 0.00 | 0.00 | 96 | 1001.9 |
| 20260902100305 | 80 | 44 | 4.0 | 8.0 | 0.00 | 0.00 | 0.00 | 96 | 1002.0 |
| 20260902095254 | 80 | 48 | 2.0 | 9.0 | 0.00 | 0.00 | 0.00 | 96 | 1001.7 |
| 20260902094252 | 80 | 47 | 2.0 | 6.0 | 0.00 | 0.00 | 0.00 | 96 | 1001.4 |
| 20260902093251 | 79 | 47 | 2.0 | 9.0 | 0.00 | 0.00 | 0.00 | 96 | 1001.2 |
| 20260902092729 | 0 | 46 | 1.0 | 3.0 | 0.00 | 0.00 | 0.00 | ||
| 20260902091249 | 80 | 27 | 3.0 | 9.0 | 0.00 | 0.00 | 0.00 | 96 | 1001.3 |
| 20260902090654 | 80 | 321 | 8.0 | 15.0 | 0.00 | 0.00 | 0.00 | 95 | 1001.3 |
| 20260902085217 | 80 | 309 | 11.0 | 16.0 | 0.00 | 0.00 | 0.00 | 95 | 1001.0 |
| 20260902084218 | 80 | 306 | 11.0 | 16.0 | 0.00 | 0.00 | 0.00 | 95 | 1001.1 |
| 20260902083218 | 80 | 302 | 5.0 | 15.0 | 0.00 | 0.00 | 0.00 | 95 | 1001.3 |
| 20260902082218 | 80 | 317 | 2.0 | 10.0 | 0.00 | 0.00 | 0.00 | 95 | 1001.3 |
| 20260902081215 | 80 | 321 | 2.0 | 7.0 | 0.00 | 0.00 | 0.00 | 94 | 1001.4 |
| 20260902080216 | 80 | 338 | 3.0 | 5.0 | 0.00 | 0.00 | 0.00 | 94 | 1001.6 |
| 20260902075215 | 81 | 24 | 3.0 | 15.0 | 0.00 | 0.00 | 0.00 | 93 | 1001.7 |
| 20260902074216 | 81 | 32 | 2.0 | 3.0 | 0.00 | 0.00 | 0.00 | 93 | 1001.6 |
| 20260902073653 | 81 | 35 | 2.0 | 3.0 | 0.00 | 0.00 | 0.00 | 93 | 1001.7 |
| 20260902072215 | 81 | 36 | 2.0 | 5.0 | 0.00 | 0.00 | 0.00 | 93 | 1001.9 |
| 20260902071216 | 81 | 51 | 2.0 | 5.0 | 0.00 | 0.00 | 0.00 | 93 | 1001.9 |
| 20260902070216 | 81 | 17 | 2.0 | 4.0 | 0.00 | 0.00 | 0.00 | 92 | 1001.6 |
| 20260902065214 | 81 | 41 | 2.0 | 3.0 | 0.00 | 0.00 | 0.00 | 92 | 1001.7 |
| 20260902064210 | 82 | 42 | 2.0 | 3.0 | 0.00 | 0.00 | 0.00 | 92 | 1001.7 |
| 20260902063211 | 81 | 42 | 2.0 | 4.0 | 0.00 | 0.00 | 0.00 | 92 | 1001.7 |
| 20260902062210 | 81 | 40 | 2.0 | 3.0 | 0.00 | 0.00 | 0.00 | 92 | 1001.4 |
| 20260902061648 | 81 | 35 | 2.0 | 4.0 | 0.00 | 0.00 | 0.00 | 92 | 1001.5 |
| 20260902060211 | 81 | 36 | 2.0 | 5.0 | 0.00 | 0.00 | 0.00 | 92 | 1001.6 |
| 20260902055211 | 82 | 50 | 2.0 | 4.0 | 0.00 | 0.00 | 0.00 | 92 | 1001.8 |
| 20260902054208 | 82 | 49 | 2.0 | 5.0 | 0.00 | 0.00 | 0.00 | 92 | 1001.7 |
| 20260902053218 | 82 | 33 | 2.0 | 5.0 | 0.00 | 0.00 | 0.00 | 92 | 1001.8 |
| 20260902052205 | 82 | 45 | 2.0 | 4.0 | 0.00 | 0.00 | 0.00 | 92 | 1001.8 |
| 20260902051206 | 82 | 44 | 2.0 | 3.0 | 0.00 | 0.00 | 0.00 | 92 | 1001.7 |
| 20260902050648 | 82 | 61 | 2.0 | 4.0 | 0.00 | 0.00 | 0.00 | 92 | 1001.8 |
| 20260902045205 | 82 | 43 | 2.0 | 4.0 | 0.00 | 0.00 | 0.00 | 92 | 1002.0 |
| 20260902044206 | 82 | 17 | 2.0 | 3.0 | 0.00 | 0.00 | 0.00 | 92 | 1002.0 |
| 20260902043206 | 82 | 43 | 2.0 | 4.0 | 0.00 | 0.00 | 0.00 | 92 | 1002.1 |
| 20260902042205 | 82 | 48 | 2.0 | 4.0 | 0.00 | 0.00 | 0.00 | 92 | 1002.2 |
| 20260902041645 | 82 | 46 | 2.0 | 5.0 | 0.00 | 0.00 | 0.00 | 91 | 1002.1 |
| 20260902040205 | 82 | 43 | 2.0 | 4.0 | 0.00 | 0.00 | 0.00 | 91 | 1002.3 |
| 20260902035205 | 82 | 47 | 2.0 | 4.0 | 0.00 | 0.00 | 0.00 | 91 | 1002.2 |
| 20260902034205 | 82 | 38 | 2.0 | 4.0 | 0.00 | 0.00 | 0.00 | 91 | 1002.1 |
| 20260902033201 | 82 | 61 | 2.0 | 4.0 | 0.00 | 0.00 | 0.00 | 91 | 1002.3 |
| 20260902032202 | 82 | 80 | 2.0 | 4.0 | 0.00 | 0.00 | 0.00 | 91 | 1002.6 |
| 20260902031644 | 82 | 27 | 2.0 | 4.0 | 0.00 | 0.00 | 0.00 | 91 | 1002.6 |
| 20260902030644 | 82 | 30 | 2.0 | 4.0 | 0.00 | 0.00 | 0.00 | 91 | 1002.7 |
| 20260902025202 | 82 | 58 | 2.0 | 4.0 | 0.00 | 0.00 | 0.00 | 91 | 1002.8 |
| 20260902024201 | 82 | 32 | 3.0 | 7.0 | 0.00 | 0.00 | 0.00 | 91 | 1002.8 |
| 20260902023642 | 82 | 28 | 3.0 | 5.0 | 0.00 | 0.00 | 0.00 | 91 | 1002.8 |
| 20260902022200 | 82 | 28 | 3.0 | 6.0 | 0.00 | 0.00 | 0.00 | 91 | 1002.9 |
| 20260902021646 | 82 | 54 | 3.0 | 6.0 | 0.00 | 0.00 | 0.00 | 91 | 1002.8 |
| 20260902020645 | 82 | 64 | 3.0 | 5.0 | 0.00 | 0.00 | 0.00 | 91 | 1002.8 |
| 20260902015200 | 82 | 260 | 3.0 | 5.0 | 0.00 | 0.00 | 0.00 | 91 | 1003.0 |
| 20260902014632 | 82 | 26 | 3.0 | 5.0 | 0.00 | 0.00 | 0.00 | 90 | 1002.9 |
| 20260902013213 | 82 | 24 | 3.0 | 5.0 | 0.00 | 0.00 | 0.00 | 90 | 1002.7 |
| 20260902012200 | 82 | 43 | 3.0 | 6.0 | 0.00 | 0.00 | 0.00 | 90 | 1002.5 |
| 20260902011201 | 82 | 43 | 3.0 | 5.0 | 0.00 | 0.00 | 0.00 | 90 | 1002.3 |
| 20260902010158 | 82 | 42 | 3.0 | 6.0 | 0.00 | 0.00 | 0.00 | 90 | 1002.2 |
| 20260902005159 | 82 | 48 | 3.0 | 5.0 | 0.00 | 0.00 | 0.00 | 89 | 1001.9 |
| 20260902004159 | 82 | 40 | 3.0 | 6.0 | 0.00 | 0.00 | 0.00 | 89 | 1002.0 |
| 20260902003636 | 82 | 80 | 3.0 | 7.0 | 0.00 | 0.00 | 0.00 | 89 | 1002.1 |
| 20260902002159 | 82 | 40 | 4.0 | 7.0 | 0.00 | 0.00 | 0.00 | 88 | 1002.2 |
| 20260902001212 | 82 | 30 | 4.0 | 8.0 | 0.00 | 0.00 | 0.00 | 88 | 1002.3 |
| 20260902000159 | 82 | 27 | 4.0 | 8.0 | 0.00 | 0.00 | 0.00 | 87 | 1002.3 |
| 20260901235159 | 83 | 9 | 4.0 | 7.0 | 0.00 | 0.00 | 0.00 | 87 | 1002.0 |
| 20260901234159 | 83 | 36 | 4.0 | 8.0 | 0.00 | 0.00 | 0.00 | 86 | 1002.0 |
| 20260901233156 | 83 | 53 | 4.0 | 7.0 | 0.00 | 0.00 | 0.00 | 85 | 1002.1 |
| 20260901232156 | 83 | 16 | 4.0 | 8.0 | 0.00 | 0.00 | 0.00 | 84 | 1002.1 |
| 20260901231156 | 83 | 41 | 4.0 | 8.0 | 0.00 | 0.00 | 0.00 | 83 | 1002.0 |
| 20260901230632 | 83 | 12 | 4.0 | 9.0 | 0.00 | 0.00 | 0.00 | 83 | 1002.1 |
| 20260901225156 | 84 | 51 | 5.0 | 9.0 | 0.00 | 0.00 | 0.00 | 82 | 1002.5 |
| 20260901224156 | 84 | 27 | 5.0 | 9.0 | 0.00 | 0.00 | 0.00 | 82 | 1003.1 |
| 20260901223153 | 85 | 41 | 5.0 | 9.0 | 0.00 | 0.00 | 0.00 | 81 | 1003.2 |
| 20260901222154 | 85 | 45 | 5.0 | 8.0 | 0.00 | 0.00 | 0.00 | 78 | 1003.9 |
| 20260901221150 | 86 | 2 | 4.0 | 7.0 | 0.00 | 0.00 | 0.00 | 77 | 1005.3 |
| 20260901220300 | 86 | 41 | 4.0 | 9.0 | 0.00 | 0.00 | 0.00 | 75 | 1006.1 |
| 20260901215628 | 86 | 31 | 4.0 | 7.0 | 0.00 | 0.00 | 0.00 | 75 | 1006.8 |
| 20260901214151 | 86 | 25 | 4.0 | 9.0 | 0.00 | 0.00 | 0.00 | 76 | 1006.4 |
| 20260901213151 | 86 | 32 | 5.0 | 9.0 | 0.00 | 0.00 | 0.00 | 75 | 1006.3 |